createdAt,value
2022-12-17T00:00:34.939Z,101590.34
2022-12-17T00:03:20.400Z,101581.38
2022-12-17T00:06:06.448Z,101588.25
2022-12-17T00:08:51.693Z,101571.88
2022-12-17T00:11:34.039Z,101589.06
2022-12-17T00:14:21.062Z,101578.88
2022-12-17T00:17:06.067Z,101591.22
2022-12-17T00:19:51.669Z,101598.19
2022-12-17T00:22:37.131Z,101599.78
2022-12-17T00:25:23.207Z,101580.97
2022-12-17T00:28:08.303Z,101593.75
2022-12-17T00:30:54.715Z,101596.47
2022-12-17T00:33:41.125Z,101607.59
2022-12-17T00:36:28.656Z,101605.88
2022-12-17T00:39:13.683Z,101610.81
2022-12-17T00:41:58.961Z,101610.72
2022-12-17T00:44:43.968Z,101604.16
2022-12-17T00:47:30.687Z,101598.81
2022-12-17T00:50:15.969Z,101607.38
2022-12-17T00:53:01.286Z,101610.81
2022-12-17T00:55:46.507Z,101609.06
2022-12-17T00:58:31.503Z,101612.34
2022-12-17T01:01:17.751Z,101624.88
2022-12-17T01:04:04.551Z,101620.56
2022-12-17T01:06:49.582Z,101615.44
2022-12-17T01:09:34.865Z,101609.78
2022-12-17T01:12:19.867Z,101617.69
2022-12-17T01:15:05.132Z,101621.28
2022-12-17T01:17:56.175Z,101628.91
2022-12-17T01:20:42.995Z,101622.56
2022-12-17T01:23:36.993Z,101636.31
2022-12-17T01:26:22.391Z,101645.75
2022-12-17T01:29:07.543Z,101644.97
2022-12-17T01:31:52.641Z,101649.56
2022-12-17T01:34:43.026Z,101641.69
2022-12-17T01:37:29.791Z,101645.53
2022-12-17T01:40:15.006Z,101643.66
2022-12-17T01:43:03.136Z,101650.44
2022-12-17T01:45:55.733Z,101656.59
2022-12-17T01:48:45.657Z,101653.00
2022-12-17T01:51:32.928Z,101656.38
2022-12-17T01:54:20.966Z,101664.75
2022-12-17T01:57:06.760Z,101668.28
2022-12-17T01:59:57.351Z,101669.06
2022-12-17T02:02:42.690Z,101678.22
2022-12-17T02:05:27.766Z,101663.56
2022-12-17T02:08:26.266Z,101679.38
2022-12-17T02:11:19.120Z,101678.78
2022-12-17T02:14:15.679Z,101678.41
2022-12-17T02:17:07.674Z,101678.16
2022-12-17T02:20:02.939Z,101682.06
2022-12-17T02:23:00.815Z,101680.31
2022-12-17T02:25:58.337Z,101685.00
2022-12-17T02:28:46.625Z,101685.63
2022-12-17T02:31:34.858Z,101685.19
2022-12-17T02:34:20.617Z,101684.34
2022-12-17T02:37:08.425Z,101687.28
2022-12-17T02:39:56.014Z,101685.72
2022-12-17T02:42:45.423Z,101688.13
2022-12-17T02:45:33.471Z,101690.97
2022-12-17T02:48:20.268Z,101696.84
2022-12-17T02:51:05.957Z,101703.81
2022-12-17T02:53:51.518Z,101696.63
2022-12-17T02:56:42.859Z,101689.63
2022-12-17T02:59:28.227Z,101694.41
2022-12-17T03:02:15.855Z,101690.78
2022-12-17T03:05:15.370Z,101691.44
2022-12-17T03:08:06.680Z,101703.56
2022-12-17T03:10:52.152Z,101702.22
2022-12-17T03:13:41.575Z,101701.72
2022-12-17T03:16:34.069Z,101698.22
2022-12-17T03:19:23.642Z,101707.53
2022-12-17T03:22:09.122Z,101710.47
2022-12-17T03:24:54.254Z,101705.59
2022-12-17T03:27:39.463Z,101713.25
2022-12-17T03:30:25.677Z,101703.06
2022-12-17T03:33:11.018Z,101711.88
2022-12-17T03:36:02.819Z,101714.78
2022-12-17T03:38:48.365Z,101720.41
2022-12-17T03:41:33.451Z,101707.47
2022-12-17T03:44:18.688Z,101711.06
2022-12-17T03:47:05.285Z,101710.19
2022-12-17T03:50:04.592Z,101716.19
2022-12-17T03:52:51.394Z,101725.34
2022-12-17T03:55:36.836Z,101708.28
2022-12-17T03:58:22.159Z,101719.63
2022-12-17T04:01:07.373Z,101716.97
2022-12-17T04:03:52.477Z,101724.72
2022-12-17T04:06:34.082Z,101717.50
2022-12-17T04:09:21.008Z,101724.03
2022-12-17T04:12:06.338Z,101727.72
2022-12-17T04:14:51.605Z,101732.28
2022-12-17T04:17:36.878Z,101726.59
2022-12-17T04:20:22.492Z,101735.56
2022-12-17T04:23:07.818Z,101739.06
2022-12-17T04:25:54.329Z,101733.34
2022-12-17T04:28:39.869Z,101746.91
2022-12-17T04:31:25.102Z,101745.94
2022-12-17T04:34:10.559Z,101759.59
2022-12-17T04:36:55.779Z,101747.72
2022-12-17T04:39:40.852Z,101757.94
2022-12-17T04:42:27.674Z,101764.78
2022-12-17T04:45:15.231Z,101766.78
2022-12-17T04:48:00.459Z,101767.16
2022-12-17T04:50:45.425Z,101765.66
2022-12-17T04:53:30.672Z,101767.84
2022-12-17T04:56:15.835Z,101774.28
2022-12-17T04:59:05.988Z,101771.81
2022-12-17T05:01:51.393Z,101778.06
2022-12-17T05:04:36.716Z,101781.84
2022-12-17T05:07:21.778Z,101788.81
2022-12-17T05:10:07.216Z,101793.63
2022-12-17T05:12:52.124Z,101797.94
2022-12-17T05:15:39.121Z,101797.88
2022-12-17T05:18:25.473Z,101792.25
2022-12-17T05:21:10.689Z,101787.91
2022-12-17T05:23:56.257Z,101787.66
2022-12-17T05:26:41.869Z,101788.44
2022-12-17T05:29:27.359Z,101774.63
2022-12-17T05:32:13.665Z,101779.66
2022-12-17T05:34:59.253Z,101786.84
2022-12-17T05:37:44.522Z,101784.03
2022-12-17T05:40:30.403Z,101783.94
2022-12-17T05:43:16.834Z,101792.59
2022-12-17T05:46:02.903Z,101800.72
2022-12-17T05:48:50.204Z,101812.34
2022-12-17T05:51:38.802Z,101812.88
2022-12-17T05:54:25.407Z,101812.59
2022-12-17T05:57:10.459Z,101809.28
2022-12-17T05:59:55.625Z,101811.75
2022-12-17T06:02:40.901Z,101815.75
2022-12-17T06:05:28.266Z,101816.34
2022-12-17T06:08:20.873Z,101807.59
2022-12-17T06:11:06.142Z,101825.47
2022-12-17T06:13:51.387Z,101826.19
2022-12-17T06:16:38.922Z,101823.81
2022-12-17T06:19:24.360Z,101818.88
2022-12-17T06:22:10.752Z,101822.75
2022-12-17T06:24:56.025Z,101830.28
2022-12-17T06:27:41.666Z,101825.63
2022-12-17T06:30:27.763Z,101838.47
2022-12-17T06:33:22.069Z,101837.50
2022-12-17T06:36:07.622Z,101836.28
2022-12-17T06:38:53.928Z,101834.72
2022-12-17T06:41:39.186Z,101835.50
2022-12-17T06:44:24.385Z,101840.50
2022-12-17T06:47:12.501Z,101854.66
2022-12-17T06:50:01.242Z,101848.47
2022-12-17T06:52:47.162Z,101858.13
2022-12-17T06:55:34.129Z,101861.44
2022-12-17T06:58:19.684Z,101859.38
2022-12-17T07:01:07.667Z,101867.41
2022-12-17T07:03:53.034Z,101865.00
2022-12-17T07:06:41.147Z,101866.56
2022-12-17T07:09:26.375Z,101865.41
2022-12-17T07:12:13.063Z,101868.31
2022-12-17T07:14:58.568Z,101872.47
2022-12-17T07:17:43.752Z,101863.63
2022-12-17T07:20:28.882Z,101876.31
2022-12-17T07:23:13.785Z,101886.50
2022-12-17T07:25:59.075Z,101882.78
2022-12-17T07:28:45.862Z,101880.91
2022-12-17T07:31:31.892Z,101896.03
2022-12-17T07:34:17.299Z,101889.94
2022-12-17T07:37:20.466Z,101899.38
2022-12-17T07:40:06.331Z,101905.66
2022-12-17T07:42:51.287Z,101912.59
2022-12-17T07:45:38.052Z,101913.78
2022-12-17T07:48:23.766Z,101912.91
2022-12-17T07:51:09.462Z,101917.22
2022-12-17T07:53:54.931Z,101921.75
2022-12-17T07:56:40.090Z,101918.50
2022-12-17T07:59:25.282Z,101926.44
2022-12-17T08:02:19.906Z,101934.38
2022-12-17T08:05:05.215Z,101945.25
2022-12-17T08:07:50.694Z,101945.25
2022-12-17T08:10:36.375Z,101952.72
2022-12-17T08:13:23.885Z,101958.69
2022-12-17T08:16:11.580Z,101952.91
2022-12-17T08:18:58.507Z,101953.69
2022-12-17T08:21:40.066Z,101953.31
2022-12-17T08:24:25.688Z,101964.75
2022-12-17T08:27:25.262Z,101964.16
2022-12-17T08:30:10.559Z,101976.44
2022-12-17T08:32:55.665Z,101973.28
2022-12-17T08:35:53.563Z,101980.19
2022-12-17T08:38:38.597Z,101982.22
2022-12-17T08:41:23.758Z,101967.59
2022-12-17T08:44:08.758Z,101978.31
2022-12-17T08:46:53.881Z,101978.09
2022-12-17T08:49:39.460Z,101984.06
2022-12-17T08:52:25.797Z,101982.13
2022-12-17T08:55:11.280Z,101973.63
2022-12-17T08:57:56.176Z,101977.72
2022-12-17T09:00:41.323Z,101987.91
2022-12-17T09:03:27.079Z,101983.81
2022-12-17T09:06:12.167Z,101982.81
2022-12-17T09:08:59.138Z,101996.34
2022-12-17T09:11:44.338Z,101991.38
2022-12-17T09:14:29.602Z,101987.22
2022-12-17T09:17:14.671Z,101986.44
2022-12-17T09:19:59.562Z,101979.56
2022-12-17T09:22:44.944Z,101990.84
2022-12-17T09:25:31.463Z,102004.13
2022-12-17T09:28:19.165Z,101999.19
2022-12-17T09:31:04.238Z,101998.22
2022-12-17T09:33:49.678Z,102002.50
2022-12-17T09:36:35.259Z,102001.38
2022-12-17T09:39:20.305Z,102003.16
2022-12-17T09:42:11.446Z,102010.69
2022-12-17T09:45:06.119Z,101999.31
2022-12-17T09:48:00.356Z,102002.44
2022-12-17T09:50:45.883Z,102005.88
2022-12-17T09:53:40.067Z,102000.50
2022-12-17T09:56:29.709Z,102006.66
2022-12-17T09:59:16.550Z,102009.34
2022-12-17T10:02:02.391Z,102016.78
2022-12-17T10:04:53.254Z,102010.59
2022-12-17T10:07:42.642Z,102016.28
2022-12-17T10:10:36.977Z,102016.69
2022-12-17T10:13:30.274Z,102008.44
2022-12-17T10:16:17.769Z,102011.00
2022-12-17T10:19:04.340Z,102009.72
2022-12-17T10:21:50.750Z,102009.03
2022-12-17T10:24:35.904Z,102012.81
2022-12-17T10:27:27.775Z,102012.91
2022-12-17T10:30:13.390Z,102009.81
2022-12-17T10:33:00.235Z,102010.84
2022-12-17T10:35:53.471Z,102010.22
2022-12-17T10:38:41.152Z,102018.25
2022-12-17T10:41:39.096Z,102014.78
2022-12-17T10:44:39.267Z,102026.19
2022-12-17T10:47:30.410Z,102017.84
2022-12-17T10:50:20.951Z,102011.56
2022-12-17T10:53:08.056Z,102020.72
2022-12-17T10:55:54.089Z,102028.00
2022-12-17T10:58:46.376Z,102034.91
2022-12-17T11:01:38.763Z,102016.97
2022-12-17T11:04:41.554Z,102022.88
2022-12-17T11:07:31.402Z,102027.31
2022-12-17T11:10:19.466Z,102036.63
2022-12-17T11:13:08.482Z,102024.19
2022-12-17T11:15:59.168Z,102032.94
2022-12-17T11:18:50.136Z,102030.53
2022-12-17T11:21:40.161Z,102041.13
2022-12-17T11:24:31.793Z,102038.84
2022-12-17T11:27:17.968Z,102037.19
2022-12-17T11:30:03.119Z,102040.63
2022-12-17T11:33:16.802Z,102035.91
2022-12-17T11:36:08.619Z,102042.34
2022-12-17T11:38:57.850Z,102051.59
2022-12-17T11:41:54.277Z,102048.69
2022-12-17T11:44:57.178Z,102051.38
2022-12-17T11:47:59.280Z,102051.91
2022-12-17T11:50:51.067Z,102041.59
2022-12-17T11:53:53.975Z,102042.91
2022-12-17T11:56:45.154Z,102036.50
2022-12-17T11:59:44.754Z,102036.41
2022-12-17T12:02:55.603Z,102024.59
2022-12-17T12:05:56.417Z,102024.06
2022-12-17T12:08:45.570Z,102008.81
2022-12-17T12:11:42.285Z,102018.94
2022-12-17T12:14:42.447Z,102029.16
2022-12-17T12:17:42.287Z,102021.50
2022-12-17T12:20:44.627Z,102028.13
2022-12-17T12:23:42.388Z,102023.78
2022-12-17T12:26:32.904Z,102015.06
2022-12-17T12:29:35.664Z,102025.72
2022-12-17T12:32:31.836Z,102026.53
2022-12-17T12:35:18.886Z,102024.44
2022-12-17T12:38:07.343Z,102021.25
2022-12-17T12:41:00.892Z,102020.19
2022-12-17T12:43:49.349Z,102012.03
2022-12-17T12:46:40.236Z,102014.03
2022-12-17T12:49:39.140Z,102002.16
2022-12-17T12:52:29.305Z,102015.22
2022-12-17T12:55:14.618Z,102006.56
2022-12-17T12:58:13.747Z,102011.50
2022-12-17T13:01:11.138Z,102006.72
2022-12-17T13:04:08.226Z,102011.94
2022-12-17T13:06:43.917Z,102001.59
2022-12-17T13:09:38.613Z,102009.31
2022-12-17T13:12:32.050Z,102005.59
2022-12-17T13:15:14.461Z,102010.09
2022-12-17T13:17:46.939Z,102005.84
2022-12-17T13:20:28.867Z,102001.50
2022-12-17T13:23:16.753Z,101995.09
2022-12-17T13:25:44.822Z,102002.38
2022-12-17T13:28:29.465Z,102001.03
2022-12-17T13:31:04.650Z,101995.19
2022-12-17T13:33:42.156Z,101993.75
2022-12-17T13:36:17.989Z,101989.00
2022-12-17T13:38:57.041Z,101990.47
2022-12-17T13:41:30.997Z,101994.53
2022-12-17T13:44:02.066Z,101992.59
2022-12-17T13:46:31.434Z,101984.22
2022-12-17T13:49:01.780Z,101980.13
2022-12-17T13:51:31.581Z,101988.19
2022-12-17T13:54:02.463Z,101985.75
2022-12-17T13:56:33.804Z,101975.81
2022-12-17T13:59:08.759Z,101990.59
2022-12-17T14:01:46.672Z,101991.56
2022-12-17T14:04:23.181Z,102001.09
2022-12-17T14:06:52.722Z,101995.03
2022-12-17T14:09:23.563Z,102002.81
2022-12-17T14:12:09.516Z,102003.59
2022-12-17T14:14:44.044Z,101995.59
2022-12-17T14:17:18.866Z,102009.03
2022-12-17T14:19:47.333Z,102000.84
2022-12-17T14:22:21.440Z,102003.72
2022-12-17T14:24:50.806Z,101997.22
2022-12-17T14:27:23.795Z,102008.78
2022-12-17T14:29:51.635Z,102017.28
2022-12-17T14:32:31.818Z,102009.16
2022-12-17T14:35:01.165Z,102007.94
2022-12-17T14:37:30.222Z,102005.38
2022-12-17T14:40:02.682Z,102004.88
2022-12-17T14:42:32.393Z,102004.41
2022-12-17T14:45:02.913Z,102007.94
2022-12-17T14:47:32.148Z,102005.03
2022-12-17T14:50:04.308Z,101997.84
2022-12-17T14:52:39.311Z,101999.56
2022-12-17T14:55:31.303Z,102002.78
2022-12-17T14:58:23.264Z,102004.09
2022-12-17T15:00:55.476Z,102017.59
2022-12-17T15:03:26.542Z,102006.66
2022-12-17T15:05:58.972Z,102011.78
2022-12-17T15:08:27.207Z,102006.38
2022-12-17T15:10:56.354Z,102002.94
2022-12-17T15:13:24.078Z,102004.81
2022-12-17T15:15:52.265Z,102005.25
2022-12-17T15:18:20.261Z,102013.34
2022-12-17T15:20:48.023Z,102018.63
2022-12-17T15:23:17.635Z,102009.53
2022-12-17T15:25:47.210Z,102022.69
2022-12-17T15:28:16.794Z,102029.06
2022-12-17T15:30:45.136Z,102019.25
2022-12-17T15:33:14.126Z,102030.19
2022-12-17T15:35:42.307Z,102020.38
2022-12-17T15:38:12.650Z,102027.97
2022-12-17T15:40:40.551Z,102017.22
2022-12-17T15:43:12.813Z,102018.25
2022-12-17T15:45:43.655Z,102040.41
2022-12-17T15:48:12.706Z,102041.06
2022-12-17T15:50:40.548Z,102043.25
2022-12-17T15:53:09.240Z,102046.44
2022-12-17T15:55:37.820Z,102048.53
2022-12-17T15:58:06.249Z,102030.75
2022-12-17T16:00:34.584Z,102047.25
2022-12-17T16:03:03.993Z,102028.31
2022-12-17T16:05:31.805Z,102045.03
2022-12-17T16:08:02.255Z,102047.28
2022-12-17T16:10:30.918Z,102040.53
2022-12-17T16:12:58.642Z,102051.38
2022-12-17T16:15:26.469Z,102048.88
2022-12-17T16:17:54.189Z,102042.63
2022-12-17T16:20:23.893Z,102053.81
2022-12-17T16:22:51.600Z,102051.38
2022-12-17T16:25:19.400Z,102048.03
2022-12-17T16:27:47.141Z,102055.41
2022-12-17T16:30:15.327Z,102052.69
2022-12-17T16:32:43.251Z,102048.47
2022-12-17T16:35:11.201Z,102058.06
2022-12-17T16:37:40.312Z,102061.50
2022-12-17T16:40:09.321Z,102062.13
2022-12-17T16:42:37.106Z,102069.47
2022-12-17T16:45:05.859Z,102070.38
2022-12-17T16:47:33.603Z,102070.88
2022-12-17T16:50:01.379Z,102074.69
2022-12-17T16:52:29.196Z,102072.91
2022-12-17T16:54:58.371Z,102074.59
2022-12-17T16:57:26.156Z,102078.41
2022-12-17T16:59:53.929Z,102078.03
2022-12-17T17:02:22.021Z,102084.41
2022-12-17T17:04:49.882Z,102078.22
2022-12-17T17:07:17.622Z,102090.00
2022-12-17T17:09:45.354Z,102089.72
2022-12-17T17:12:14.678Z,102083.34
2022-12-17T17:14:44.091Z,102091.00
2022-12-17T17:17:11.929Z,102091.66
2022-12-17T17:19:39.636Z,102091.66
2022-12-17T17:22:07.378Z,102092.38
2022-12-17T17:24:35.162Z,102098.25
2022-12-17T17:27:02.847Z,102100.78
2022-12-17T17:29:31.964Z,102096.38
2022-12-17T17:32:15.111Z,102098.94
2022-12-17T17:34:43.002Z,102096.19
2022-12-17T17:37:10.806Z,102103.75
2022-12-17T17:39:38.526Z,102096.78
2022-12-17T17:42:07.130Z,102100.31
2022-12-17T17:44:37.160Z,102104.16
2022-12-17T17:47:05.427Z,102115.50
2022-12-17T17:49:33.336Z,102117.97
2022-12-17T17:52:09.980Z,102122.56
2022-12-17T17:54:39.291Z,102111.66
2022-12-17T17:57:07.079Z,102109.22
2022-12-17T17:59:36.246Z,102111.09
2022-12-17T18:02:04.523Z,102114.34
2022-12-17T18:04:32.952Z,102105.78
2022-12-17T18:09:48.551Z,102110.69
2022-12-17T18:12:33.689Z,102115.78
2022-12-17T18:15:14.138Z,102113.72
2022-12-17T18:17:43.600Z,102118.06
2022-12-17T18:20:13.468Z,102106.84
2022-12-17T18:22:41.146Z,102121.38
2022-12-17T18:25:09.198Z,102133.38
2022-12-17T18:27:36.940Z,102136.69
2022-12-17T18:30:07.445Z,102130.63
2022-12-17T18:32:35.165Z,102127.25
2022-12-17T18:35:03.030Z,102122.84
2022-12-17T18:37:31.064Z,102123.31
2022-12-17T18:39:58.776Z,102110.00
2022-12-17T18:42:49.156Z,102111.53
2022-12-17T18:45:18.450Z,102109.00
2022-12-17T18:47:46.182Z,102115.88
2022-12-17T18:50:13.955Z,102119.78
2022-12-17T18:52:41.993Z,102120.00
2022-12-17T18:55:09.754Z,102114.78
2022-12-17T18:57:37.577Z,102122.44
2022-12-17T19:00:06.611Z,102120.00
2022-12-17T19:02:36.201Z,102122.56
2022-12-17T19:05:04.258Z,102114.59
2022-12-17T19:07:32.062Z,102123.69
2022-12-17T19:09:59.758Z,102130.56
2022-12-17T19:12:27.527Z,102133.41
2022-12-17T19:14:55.236Z,102130.44
2022-12-17T19:17:22.995Z,102139.47
2022-12-17T19:19:52.118Z,102133.69
2022-12-17T19:22:20.047Z,102151.06
2022-12-17T19:24:47.784Z,102146.03
2022-12-17T19:27:15.549Z,102141.69
2022-12-17T19:29:47.729Z,102148.38
2022-12-17T19:32:19.932Z,102140.19
2022-12-17T19:34:47.636Z,102142.75
2022-12-17T19:37:16.996Z,102137.56
2022-12-17T19:39:45.087Z,102140.88
2022-12-17T19:42:24.609Z,102133.91
2022-12-17T19:44:54.038Z,102135.69
2022-12-17T19:47:22.562Z,102136.03
2022-12-17T19:49:50.537Z,102147.53
2022-12-17T19:52:19.670Z,102143.91
2022-12-17T19:54:49.627Z,102153.22
2022-12-17T19:57:17.380Z,102152.22
2022-12-17T19:59:45.107Z,102158.97
2022-12-17T20:02:12.927Z,102160.84
2022-12-17T20:04:40.848Z,102158.22
2022-12-17T20:07:08.741Z,102167.41
2022-12-17T20:09:37.886Z,102169.22
2022-12-17T20:12:05.939Z,102171.78
2022-12-17T20:14:35.231Z,102174.66
2022-12-17T20:17:04.870Z,102161.50
2022-12-17T20:19:34.828Z,102169.81
2022-12-17T20:22:05.327Z,102172.00
2022-12-17T20:24:33.478Z,102177.56
2022-12-17T20:27:02.569Z,102187.09
2022-12-17T20:29:31.341Z,102187.44
2022-12-17T20:31:59.219Z,102195.00
2022-12-17T20:34:30.241Z,102199.13
2022-12-17T20:36:58.038Z,102184.06
2022-12-17T20:39:28.206Z,102195.28
2022-12-17T20:41:56.951Z,102192.16
2022-12-17T20:44:26.461Z,102199.72
2022-12-17T20:46:54.323Z,102204.22
2022-12-17T20:49:22.094Z,102191.84
2022-12-17T20:51:49.848Z,102205.03
2022-12-17T20:54:17.626Z,102197.25
2022-12-17T20:56:45.428Z,102197.94
2022-12-17T20:59:16.066Z,102202.25
2022-12-17T21:01:47.353Z,102202.47
2022-12-17T21:04:16.920Z,102205.88
2022-12-17T21:06:46.438Z,102201.47
2022-12-17T21:09:18.386Z,102201.38
2022-12-17T21:11:46.162Z,102205.56
2022-12-17T21:14:15.967Z,102199.50
2022-12-17T21:16:46.264Z,102203.34
2022-12-17T21:19:18.987Z,102200.81
2022-12-17T21:21:47.028Z,102205.59
2022-12-17T21:24:14.771Z,102203.44
2022-12-17T21:26:45.234Z,102196.50
2022-12-17T21:29:14.652Z,102207.34
2022-12-17T21:31:45.669Z,102203.13
2022-12-17T21:34:16.144Z,102202.03
2022-12-17T21:36:44.415Z,102193.50
2022-12-17T21:39:13.467Z,102189.75
2022-12-17T21:41:44.862Z,102201.13
2022-12-17T21:44:15.854Z,102203.91
2022-12-17T21:46:50.165Z,102196.25
2022-12-17T21:49:19.052Z,102203.69
2022-12-17T21:51:47.011Z,102205.34
2022-12-17T21:54:19.430Z,102196.25
2022-12-17T21:56:48.328Z,102203.00
2022-12-17T21:59:16.115Z,102200.59
2022-12-17T22:01:45.428Z,102194.75
2022-12-17T22:04:13.493Z,102200.91
2022-12-17T22:06:48.981Z,102201.81
2022-12-17T22:09:22.862Z,102213.53
2022-12-17T22:12:21.444Z,102202.81
2022-12-17T22:14:49.460Z,102200.59
2022-12-17T22:17:18.613Z,102211.00
2022-12-17T22:19:46.352Z,102209.00
2022-12-17T22:22:14.335Z,102212.34
2022-12-17T22:24:42.035Z,102210.78
2022-12-17T22:27:10.116Z,102210.91
2022-12-17T22:29:55.956Z,102216.88
2022-12-17T22:32:42.334Z,102211.88
2022-12-17T22:36:24.467Z,102211.78
2022-12-17T22:42:33.009Z,102224.53
2022-12-17T22:44:34.343Z,102221.97
2022-12-17T22:44:42.341Z,102223.84
2022-12-17T22:46:22.447Z,102224.84
2022-12-17T22:48:51.507Z,102223.06
2022-12-17T22:51:31.685Z,102229.94
2022-12-17T22:54:05.745Z,102250.44
2022-12-17T22:57:01.538Z,102242.44
2022-12-17T22:59:25.602Z,102240.66
2022-12-17T23:01:53.574Z,102237.25
2022-12-17T23:04:22.699Z,102240.56
2022-12-17T23:06:50.521Z,102251.28
2022-12-17T23:09:20.109Z,102248.97
2022-12-17T23:11:49.161Z,102250.75
2022-12-17T23:14:17.798Z,102256.72
2022-12-17T23:16:46.107Z,102253.59
2022-12-17T23:19:14.004Z,102254.41
2022-12-17T23:21:43.046Z,102249.31
2022-12-17T23:24:10.839Z,102247.31
2022-12-17T23:26:39.788Z,102239.66
2022-12-17T23:29:13.621Z,102240.56
2022-12-17T23:31:44.470Z,102227.91
2022-12-17T23:34:12.185Z,102237.13
2022-12-17T23:36:39.908Z,102237.00
2022-12-17T23:39:09.118Z,102234.72
2022-12-17T23:41:37.332Z,102238.34
2022-12-17T23:44:05.362Z,102241.53
2022-12-17T23:46:33.243Z,102239.75
2022-12-17T23:49:01.136Z,102248.97
2022-12-17T23:51:29.301Z,102236.78
2022-12-17T23:53:57.042Z,102235.56
2022-12-17T23:56:27.914Z,102225.59
2022-12-17T23:58:58.118Z,102216.19
